createdAt,value
2022-11-01T00:02:12.553Z,100626.58
2022-11-01T00:04:41.006Z,100626.63
2022-11-01T00:07:09.211Z,100624.27
2022-11-01T00:09:37.564Z,100620.45
2022-11-01T00:12:06.373Z,100617.38
2022-11-01T00:14:34.565Z,100612.39
2022-11-01T00:17:03.096Z,100614.14
2022-11-01T00:19:31.318Z,100612.52
2022-11-01T00:21:59.504Z,100613.52
2022-11-01T00:24:27.704Z,100609.52
2022-11-01T00:26:55.893Z,100604.59
2022-11-01T00:29:24.395Z,100602.20
2022-11-01T00:31:52.988Z,100596.61
2022-11-01T00:34:21.245Z,100593.05
2022-11-01T00:36:49.766Z,100593.06
2022-11-01T00:39:18.090Z,100593.98
2022-11-01T00:41:46.173Z,100598.54
2022-11-01T00:44:14.525Z,100596.73
2022-11-01T00:46:42.838Z,100592.38
2022-11-01T00:49:12.246Z,100589.48
2022-11-01T00:51:40.435Z,100586.08
2022-11-01T00:54:08.665Z,100585.05
2022-11-01T00:56:37.053Z,100581.20
2022-11-01T00:59:05.402Z,100576.44
2022-11-01T01:01:34.008Z,100571.87
2022-11-01T01:04:02.361Z,100565.81
2022-11-01T01:06:30.920Z,100558.86
2022-11-01T01:09:01.281Z,100552.82
2022-11-01T01:11:29.814Z,100553.20
2022-11-01T01:13:58.025Z,100549.92
2022-11-01T01:16:26.297Z,100541.34
2022-11-01T01:18:54.838Z,100537.29
2022-11-01T01:21:23.117Z,100538.05
2022-11-01T01:23:51.801Z,100537.29
2022-11-01T01:26:19.962Z,100537.25
2022-11-01T01:28:48.086Z,100538.41
2022-11-01T01:31:16.378Z,100540.52
2022-11-01T01:33:44.553Z,100538.90
2022-11-01T01:36:12.738Z,100534.65
2022-11-01T01:38:40.856Z,100535.13
2022-11-01T01:41:27.937Z,100539.05
2022-11-01T01:43:56.126Z,100538.40
2022-11-01T01:46:24.343Z,100539.83
2022-11-01T01:48:59.758Z,100538.57
2022-11-01T01:51:30.193Z,100533.15
2022-11-01T01:53:59.227Z,100531.02
2022-11-01T01:56:30.555Z,100531.51
2022-11-01T01:59:06.943Z,100531.07
2022-11-01T02:01:37.720Z,100531.59
2022-11-01T02:04:13.007Z,100532.27
2022-11-01T02:06:41.379Z,100529.64
2022-11-01T02:09:10.470Z,100529.56
2022-11-01T02:11:38.827Z,100526.61
2022-11-01T02:14:07.179Z,100522.34
2022-11-01T02:16:41.229Z,100522.89
2022-11-01T02:19:12.495Z,100519.61
2022-11-01T02:21:59.151Z,100520.30
2022-11-01T02:24:27.182Z,100517.52
2022-11-01T02:27:07.317Z,100515.14
2022-11-01T02:30:03.718Z,100515.88
2022-11-01T02:32:46.862Z,100520.54
2022-11-01T02:35:29.071Z,100529.22
2022-11-01T02:38:23.849Z,100536.75
2022-11-01T02:41:10.889Z,100535.45
2022-11-01T02:43:48.848Z,100530.06
2022-11-01T02:46:38.520Z,100521.90
2022-11-01T02:49:09.764Z,100520.35
2022-11-01T02:51:39.186Z,100516.25
2022-11-01T02:54:52.729Z,100514.77
2022-11-01T02:57:43.999Z,100512.29
2022-11-01T03:00:30.441Z,100508.11
2022-11-01T03:03:17.295Z,100504.15
2022-11-01T03:06:05.334Z,100502.46
2022-11-01T03:08:45.390Z,100509.05
2022-11-01T03:11:19.741Z,100510.16
2022-11-01T03:13:54.167Z,100515.30
2022-11-01T03:16:34.272Z,100520.92
2022-11-01T03:19:02.646Z,100530.59
2022-11-01T03:21:40.938Z,100533.02
2022-11-01T03:24:21.171Z,100526.65
2022-11-01T03:27:14.819Z,100519.95
2022-11-01T03:29:47.299Z,100505.02
2022-11-01T03:32:19.957Z,100504.58
2022-11-01T03:34:48.479Z,100498.45
2022-11-01T03:37:18.537Z,100500.56
2022-11-01T03:39:52.607Z,100504.20
2022-11-01T03:42:24.355Z,100501.45
2022-11-01T03:45:03.475Z,100513.64
2022-11-01T03:47:32.267Z,100522.60
2022-11-01T03:50:25.704Z,100527.15
2022-11-01T03:52:54.717Z,100528.30
2022-11-01T03:55:23.434Z,100526.50
2022-11-01T03:58:00.145Z,100530.86
2022-11-01T04:00:31.872Z,100530.86
2022-11-01T04:03:01.037Z,100521.98
2022-11-01T04:05:31.917Z,100518.90
2022-11-01T04:08:00.252Z,100522.79
2022-11-01T04:10:32.199Z,100524.42
2022-11-01T04:13:01.329Z,100532.42
2022-11-01T04:15:48.574Z,100539.98
2022-11-01T04:18:43.276Z,100551.40
2022-11-01T04:21:25.169Z,100547.67
2022-11-01T04:23:53.396Z,100567.67
2022-11-01T04:26:23.561Z,100580.77
2022-11-01T04:28:58.099Z,100584.11
2022-11-01T04:31:27.751Z,100576.55
2022-11-01T04:33:57.208Z,100553.23
2022-11-01T04:36:26.348Z,100543.95
2022-11-01T04:38:56.665Z,100530.05
2022-11-01T04:41:27.215Z,100491.35
2022-11-01T04:43:59.837Z,100472.79
2022-11-01T04:46:32.353Z,100475.20
2022-11-01T04:49:00.912Z,100458.73
2022-11-01T04:51:29.207Z,100437.91
2022-11-01T04:53:57.603Z,100414.88
2022-11-01T04:56:25.883Z,100408.94
2022-11-01T04:58:54.093Z,100415.62
2022-11-01T05:01:22.400Z,100398.38
2022-11-01T05:03:51.090Z,100369.67
2022-11-01T05:06:19.318Z,100350.18
2022-11-01T05:08:47.559Z,100349.11
2022-11-01T05:11:15.712Z,100341.63
2022-11-01T05:13:43.909Z,100331.63
2022-11-01T05:16:19.328Z,100325.08
2022-11-01T05:18:49.264Z,100314.52
2022-11-01T05:21:17.899Z,100302.33
2022-11-01T05:23:49.061Z,100298.16
2022-11-01T05:26:17.283Z,100295.57
2022-11-01T05:28:45.557Z,100306.03
2022-11-01T05:31:13.774Z,100350.01
2022-11-01T05:33:41.965Z,100390.36
2022-11-01T05:36:10.231Z,100384.24
2022-11-01T05:38:38.616Z,100378.48
2022-11-01T05:41:07.041Z,100390.21
2022-11-01T05:43:35.298Z,100388.76
2022-11-01T05:46:07.921Z,100393.43
2022-11-01T05:48:36.188Z,100393.80
2022-11-01T05:51:04.962Z,100392.58
2022-11-01T05:53:33.280Z,100402.92
2022-11-01T05:56:01.580Z,100420.02
2022-11-01T05:58:30.979Z,100433.96
2022-11-01T06:01:02.096Z,100429.06
2022-11-01T06:03:31.759Z,100415.62
2022-11-01T06:06:00.539Z,100420.95
2022-11-01T06:08:29.420Z,100425.08
2022-11-01T06:11:05.934Z,100418.55
2022-11-01T06:13:34.335Z,100418.96
2022-11-01T06:16:05.673Z,100416.87
2022-11-01T06:18:33.881Z,100412.08
2022-11-01T06:21:02.203Z,100421.02
2022-11-01T06:23:30.393Z,100416.62
2022-11-01T06:26:03.930Z,100414.08
2022-11-01T06:28:33.596Z,100414.06
2022-11-01T06:33:37.303Z,100420.91
2022-11-01T06:36:05.939Z,100409.77
2022-11-01T06:38:34.513Z,100416.31
2022-11-01T06:41:02.886Z,100410.80
2022-11-01T06:43:31.299Z,100401.98
2022-11-01T06:46:01.411Z,100392.79
2022-11-01T06:48:30.415Z,100393.70
2022-11-01T06:50:58.580Z,100399.45
2022-11-01T06:53:26.789Z,100408.14
2022-11-01T06:55:55.158Z,100399.11
2022-11-01T06:58:23.531Z,100393.69
2022-11-01T07:00:51.938Z,100391.92
2022-11-01T07:03:21.037Z,100391.90
2022-11-01T07:05:50.636Z,100398.63
2022-11-01T07:08:18.990Z,100402.85
2022-11-01T07:10:51.830Z,100409.26
2022-11-01T07:13:20.088Z,100404.43
2022-11-01T07:15:48.789Z,100399.27
2022-11-01T07:18:17.026Z,100396.57
2022-11-01T07:23:18.834Z,100392.27
2022-11-01T07:25:52.159Z,100387.81
2022-11-01T07:28:20.431Z,100387.15
2022-11-01T07:30:50.224Z,100384.56
2022-11-01T07:33:19.266Z,100383.41
2022-11-01T07:35:49.107Z,100390.32
2022-11-01T07:38:17.677Z,100391.17
2022-11-01T07:40:49.914Z,100394.52
2022-11-01T07:43:18.401Z,100398.18
2022-11-01T07:45:47.241Z,100407.02
2022-11-01T07:48:18.478Z,100403.95
2022-11-01T07:50:47.011Z,100404.33
2022-11-01T07:53:19.642Z,100400.34
2022-11-01T07:55:48.263Z,100398.45
2022-11-01T07:58:16.847Z,100398.34
2022-11-01T08:00:46.203Z,100404.31
2022-11-01T08:03:17.435Z,100410.48
2022-11-01T08:05:47.713Z,100416.83
2022-11-01T08:08:16.839Z,100421.52
2022-11-01T08:10:45.145Z,100417.85
2022-11-01T08:13:18.422Z,100413.64
2022-11-01T08:15:48.369Z,100414.84
2022-11-01T08:18:17.828Z,100414.52
2022-11-01T08:20:46.349Z,100414.55
2022-11-01T08:23:14.738Z,100412.77
2022-11-01T08:25:43.312Z,100414.55
2022-11-01T08:28:14.860Z,100420.15
2022-11-01T08:30:45.893Z,100429.42
2022-11-01T08:33:14.329Z,100423.73
2022-11-01T08:35:50.123Z,100412.70
2022-11-01T08:38:19.729Z,100406.52
2022-11-01T08:40:48.781Z,100399.47
2022-11-01T08:43:18.152Z,100394.78
2022-11-01T08:45:46.957Z,100393.59
2022-11-01T08:48:15.134Z,100389.16
2022-11-01T08:50:43.817Z,100392.10
2022-11-01T08:53:15.416Z,100386.45
2022-11-01T08:55:43.860Z,100386.33
2022-11-01T08:58:12.140Z,100388.54
2022-11-01T09:00:40.485Z,100393.79
2022-11-01T09:03:08.705Z,100389.01
2022-11-01T09:05:36.948Z,100389.05
2022-11-01T09:08:05.648Z,100390.67
2022-11-01T09:10:34.348Z,100390.56
2022-11-01T09:13:03.089Z,100388.35
2022-11-01T09:15:31.798Z,100382.70
2022-11-01T09:18:06.315Z,100382.11
2022-11-01T09:20:34.617Z,100378.54
2022-11-01T09:23:03.226Z,100366.39
2022-11-01T09:25:31.754Z,100368.44
2022-11-01T09:27:59.982Z,100377.95
2022-11-01T09:30:29.044Z,100381.28
2022-11-01T09:32:57.253Z,100383.62
2022-11-01T09:35:25.501Z,100384.38
2022-11-01T09:38:00.792Z,100382.48
2022-11-01T09:40:36.399Z,100389.32
2022-11-01T09:43:09.835Z,100395.96
2022-11-01T09:45:38.377Z,100399.15
2022-11-01T09:48:07.846Z,100400.27
2022-11-01T09:50:40.416Z,100404.38
2022-11-01T09:53:15.911Z,100411.20
2022-11-01T09:55:48.718Z,100415.27
2022-11-01T09:58:38.878Z,100418.20
2022-11-01T10:01:19.301Z,100408.36
2022-11-01T10:03:59.922Z,100404.59
2022-11-01T10:06:42.984Z,100407.16
2022-11-01T10:09:51.357Z,100408.76
2022-11-01T10:12:47.666Z,100408.77
2022-11-01T10:15:50.012Z,100405.69
2022-11-01T10:18:28.662Z,100404.72
2022-11-01T10:21:09.664Z,100412.99
2022-11-01T10:23:50.197Z,100416.04
2022-11-01T10:26:30.484Z,100414.40
2022-11-01T10:29:14.392Z,100409.04
2022-11-01T10:31:48.882Z,100407.03
2022-11-01T10:34:47.323Z,100403.81
2022-11-01T10:37:26.131Z,100412.92
2022-11-01T10:40:01.391Z,100412.48
2022-11-01T10:42:34.400Z,100403.47
2022-11-01T10:45:07.930Z,100405.67
2022-11-01T10:47:36.553Z,100405.91
2022-11-01T10:50:15.940Z,100410.45
2022-11-01T10:53:02.843Z,100417.45
2022-11-01T10:55:33.327Z,100421.55
2022-11-01T10:58:37.655Z,100416.54
2022-11-01T11:01:10.483Z,100407.23
2022-11-01T11:03:41.700Z,100403.36
2022-11-01T11:06:13.344Z,100400.81
2022-11-01T11:08:48.483Z,100393.56
2022-11-01T11:11:18.829Z,100391.92
2022-11-01T11:13:54.136Z,100400.27
2022-11-01T11:16:31.898Z,100397.23
2022-11-01T11:19:19.651Z,100401.39
2022-11-01T11:21:50.419Z,100399.98
2022-11-01T11:24:20.781Z,100406.98
2022-11-01T11:26:55.831Z,100414.60
2022-11-01T11:29:35.848Z,100423.51
2022-11-01T11:32:07.572Z,100421.52
2022-11-01T11:34:38.647Z,100420.85
2022-11-01T11:37:09.955Z,100417.02
2022-11-01T11:39:38.513Z,100416.66
2022-11-01T11:42:27.048Z,100418.65
2022-11-01T11:45:07.679Z,100418.38
2022-11-01T11:47:38.176Z,100415.61
2022-11-01T11:50:19.552Z,100412.17
2022-11-01T11:53:17.247Z,100414.42
2022-11-01T11:55:54.714Z,100408.77
2022-11-01T11:58:22.971Z,100411.09
2022-11-01T12:00:59.111Z,100403.36
2022-11-01T12:03:28.735Z,100408.36
2022-11-01T12:06:06.917Z,100413.21
2022-11-01T12:08:45.356Z,100410.73
2022-11-01T12:11:15.119Z,100416.89
2022-11-01T12:13:46.481Z,100416.11
2022-11-01T12:16:25.348Z,100413.44
2022-11-01T12:19:00.064Z,100416.84
2022-11-01T12:21:30.271Z,100414.34
2022-11-01T12:24:14.352Z,100413.02
2022-11-01T12:26:42.960Z,100419.46
2022-11-01T12:29:50.938Z,100416.75
2022-11-01T12:32:24.129Z,100413.38
2022-11-01T12:34:55.795Z,100411.59
2022-11-01T12:37:32.709Z,100410.42
2022-11-01T12:40:13.750Z,100420.98
2022-11-01T12:42:50.381Z,100423.00
2022-11-01T12:45:30.354Z,100419.60
2022-11-01T12:48:37.667Z,100412.95
2022-11-01T12:51:30.173Z,100402.70
2022-11-01T12:53:59.841Z,100404.67
2022-11-01T12:56:28.311Z,100396.58
2022-11-01T12:58:57.938Z,100386.84
2022-11-01T13:01:41.306Z,100384.71
2022-11-01T13:04:47.261Z,100382.39
2022-11-01T13:07:41.948Z,100378.73
2022-11-01T13:10:23.243Z,100378.14
2022-11-01T13:12:59.705Z,100371.60
2022-11-01T13:15:43.435Z,100383.08
2022-11-01T13:18:34.023Z,100394.33
2022-11-01T13:21:07.669Z,100389.61
2022-11-01T13:23:40.389Z,100381.90
2022-11-01T13:26:19.955Z,100382.86
2022-11-01T13:28:55.811Z,100389.48
2022-11-01T13:31:45.855Z,100384.45
2022-11-01T13:34:23.778Z,100384.96
2022-11-01T13:37:13.714Z,100383.98
2022-11-01T13:40:07.019Z,100402.94
2022-11-01T13:42:44.088Z,100412.45
2022-11-01T13:45:34.011Z,100404.53
2022-11-01T13:48:14.930Z,100405.85
2022-11-01T13:51:02.417Z,100398.15
2022-11-01T13:53:46.734Z,100397.52
2022-11-01T13:56:34.425Z,100394.29
2022-11-01T13:59:12.527Z,100401.50
2022-11-01T14:01:41.402Z,100398.04
2022-11-01T14:04:15.334Z,100403.02
2022-11-01T14:07:11.232Z,100408.88
2022-11-01T14:09:59.742Z,100411.19
2022-11-01T14:12:40.951Z,100409.69
2022-11-01T14:15:20.488Z,100410.81
2022-11-01T14:17:56.997Z,100406.50
2022-11-01T14:20:33.766Z,100403.14
2022-11-01T14:23:28.120Z,100400.13
2022-11-01T14:26:14.977Z,100404.80
2022-11-01T14:28:44.597Z,100404.36
2022-11-01T14:31:18.597Z,100409.02
2022-11-01T14:33:50.214Z,100412.30
2022-11-01T14:36:25.217Z,100418.02
2022-11-01T14:39:17.603Z,100412.39
2022-11-01T14:41:52.354Z,100419.59
2022-11-01T14:44:35.488Z,100418.36
2022-11-01T14:47:16.831Z,100421.54
2022-11-01T14:49:45.325Z,100420.34
2022-11-01T14:52:25.035Z,100420.80
2022-11-01T14:55:13.606Z,100423.30
2022-11-01T14:57:42.188Z,100422.21
2022-11-01T15:00:32.339Z,100420.45
2022-11-01T15:03:02.729Z,100435.89
2022-11-01T15:05:31.530Z,100435.77
2022-11-01T15:08:00.349Z,100440.66
2022-11-01T15:10:41.792Z,100439.88
2022-11-01T15:13:16.829Z,100437.64
2022-11-01T15:15:59.363Z,100436.62
2022-11-01T15:18:29.611Z,100441.61
2022-11-01T15:21:00.699Z,100438.11
2022-11-01T15:23:37.617Z,100440.75
2022-11-01T15:26:15.224Z,100448.19
2022-11-01T15:28:47.911Z,100446.60
2022-11-01T15:31:16.423Z,100450.17
2022-11-01T15:34:22.777Z,100450.65
2022-11-01T15:36:51.797Z,100450.27
2022-11-01T15:39:23.872Z,100451.66
2022-11-01T15:41:55.511Z,100454.02
2022-11-01T15:44:30.210Z,100456.13
2022-11-01T15:47:00.937Z,100454.67
2022-11-01T15:49:47.062Z,100452.95
2022-11-01T15:52:36.359Z,100455.41
2022-11-01T15:55:17.982Z,100457.00
2022-11-01T15:57:55.289Z,100461.38
2022-11-01T16:00:30.213Z,100461.30
2022-11-01T16:03:07.331Z,100464.48
2022-11-01T16:05:41.950Z,100467.25
2022-11-01T16:08:26.513Z,100466.99
2022-11-01T16:10:55.612Z,100468.34
2022-11-01T16:13:24.078Z,100462.67
2022-11-01T16:16:07.976Z,100467.98
2022-11-01T16:18:44.394Z,100473.62
2022-11-01T16:21:26.933Z,100474.48
2022-11-01T16:24:15.932Z,100475.05
2022-11-01T16:27:06.735Z,100476.17
2022-11-01T16:29:50.886Z,100477.45
2022-11-01T16:32:28.022Z,100476.55
2022-11-01T16:34:57.331Z,100479.73
2022-11-01T16:37:30.160Z,100481.33
2022-11-01T16:39:59.725Z,100475.63
2022-11-01T16:42:28.527Z,100478.41
2022-11-01T16:44:57.568Z,100476.00
2022-11-01T16:47:26.428Z,100480.59
2022-11-01T16:49:55.383Z,100475.92
2022-11-01T16:52:24.173Z,100478.70
2022-11-01T16:54:52.615Z,100476.91
2022-11-01T16:57:26.775Z,100479.93
2022-11-01T16:59:56.495Z,100485.65
2022-11-01T17:02:27.433Z,100490.02
2022-11-01T17:05:04.350Z,100498.39
2022-11-01T17:07:34.891Z,100497.51
2022-11-01T17:10:16.784Z,100499.38
2022-11-01T17:12:49.507Z,100499.59
2022-11-01T17:15:19.734Z,100504.60
2022-11-01T17:17:50.305Z,100508.42
2022-11-01T17:20:28.359Z,100506.67
2022-11-01T17:23:00.254Z,100510.20
2022-11-01T17:25:31.384Z,100501.61
2022-11-01T17:28:01.015Z,100498.08
2022-11-01T17:30:31.955Z,100508.73
2022-11-01T17:33:01.263Z,100518.27
2022-11-01T17:35:30.237Z,100511.98
2022-11-01T17:37:59.038Z,100521.46
2022-11-01T17:40:29.887Z,100516.48
2022-11-01T17:42:59.084Z,100515.19
2022-11-01T17:45:41.205Z,100507.79
2022-11-01T17:48:10.668Z,100510.73
2022-11-01T17:50:41.155Z,100511.10
2022-11-01T17:53:16.015Z,100515.67
2022-11-01T17:55:46.047Z,100518.86
2022-11-01T17:58:15.435Z,100515.97
2022-11-01T18:00:44.926Z,100513.64
2022-11-01T18:03:16.145Z,100511.39
2022-11-01T18:05:45.122Z,100513.16
2022-11-01T18:08:18.344Z,100509.43
2022-11-01T18:10:56.522Z,100513.45
2022-11-01T18:13:29.581Z,100515.92
2022-11-01T18:16:09.119Z,100511.66
2022-11-01T18:18:46.823Z,100518.38
2022-11-01T18:21:21.229Z,100519.59
2022-11-01T18:23:51.933Z,100517.63
2022-11-01T18:26:26.804Z,100517.09
2022-11-01T18:29:21.984Z,100515.68
2022-11-01T18:32:20.717Z,100521.20
2022-11-01T18:34:59.529Z,100520.30
2022-11-01T18:37:55.089Z,100527.19
2022-11-01T18:40:44.576Z,100535.55
2022-11-01T18:43:14.320Z,100539.55
2022-11-01T18:45:58.774Z,100541.88
2022-11-01T18:48:32.489Z,100536.84
2022-11-01T18:51:05.319Z,100539.65
2022-11-01T18:53:35.107Z,100540.77
2022-11-01T18:56:16.486Z,100541.88
2022-11-01T18:58:45.721Z,100543.12
2022-11-01T19:01:19.137Z,100546.73
2022-11-01T19:04:05.248Z,100543.23
2022-11-01T19:06:35.301Z,100540.43
2022-11-01T19:09:30.103Z,100542.05
2022-11-01T19:12:03.686Z,100544.63
2022-11-01T19:14:33.505Z,100551.32
2022-11-01T19:17:04.722Z,100552.77
2022-11-01T19:19:40.126Z,100555.46
2022-11-01T19:22:33.578Z,100557.60
2022-11-01T19:25:03.282Z,100561.55
2022-11-01T19:27:35.441Z,100560.06
2022-11-01T19:30:21.745Z,100561.38
2022-11-01T19:32:54.144Z,100565.52
2022-11-01T19:35:23.921Z,100562.85
2022-11-01T19:37:56.994Z,100561.35
2022-11-01T19:40:33.819Z,100562.23
2022-11-01T19:43:35.978Z,100559.83
2022-11-01T19:46:05.017Z,100563.33
2022-11-01T19:48:35.962Z,100565.41
2022-11-01T19:51:16.264Z,100571.09
2022-11-01T19:53:46.221Z,100574.64
2022-11-01T19:56:27.087Z,100576.66
2022-11-01T19:58:58.380Z,100572.70
2022-11-01T20:01:33.611Z,100578.67
2022-11-01T20:04:27.881Z,100579.70
2022-11-01T20:07:16.162Z,100583.85
2022-11-01T20:09:48.033Z,100589.29
2022-11-01T20:12:22.030Z,100593.58
2022-11-01T20:14:52.780Z,100598.45
2022-11-01T20:17:22.083Z,100600.75
2022-11-01T20:19:51.382Z,100605.37
2022-11-01T20:22:20.884Z,100600.08
2022-11-01T20:24:49.721Z,100603.52
2022-11-01T20:27:18.889Z,100601.43
2022-11-01T20:29:48.388Z,100596.27
2022-11-01T20:32:17.156Z,100596.58
2022-11-01T20:34:46.566Z,100599.18
2022-11-01T20:37:28.548Z,100602.01
2022-11-01T20:39:59.015Z,100601.50
2022-11-01T20:42:27.965Z,100600.13
2022-11-01T20:44:57.063Z,100599.13
2022-11-01T20:47:28.454Z,100597.65
2022-11-01T20:49:57.854Z,100602.73
2022-11-01T20:52:39.225Z,100611.80
2022-11-01T20:55:11.645Z,100610.89
2022-11-01T20:57:41.762Z,100611.08
2022-11-01T21:00:15.076Z,100609.38
2022-11-01T21:02:44.798Z,100612.42
2022-11-01T21:05:27.301Z,100607.58
2022-11-01T21:08:06.296Z,100606.63
2022-11-01T21:10:40.935Z,100607.98
2022-11-01T21:13:38.084Z,100605.23
2022-11-01T21:16:30.597Z,100603.97
2022-11-01T21:19:02.933Z,100605.23
2022-11-01T21:21:34.311Z,100603.65
2022-11-01T21:24:27.101Z,100602.59
2022-11-01T21:30:17.249Z,100605.52
2022-11-01T21:32:47.447Z,100604.58
2022-11-01T21:35:22.556Z,100603.88
2022-11-01T21:37:55.291Z,100599.48
2022-11-01T21:40:28.046Z,100598.17
2022-11-01T21:42:58.159Z,100599.88
2022-11-01T21:45:31.204Z,100600.33
2022-11-01T21:48:03.723Z,100601.51
2022-11-01T21:50:32.431Z,100605.59
2022-11-01T21:53:13.873Z,100607.27
2022-11-01T21:55:42.184Z,100608.65
2022-11-01T21:58:10.793Z,100604.91
2022-11-01T22:00:39.063Z,100605.70
2022-11-01T22:03:07.595Z,100604.13
2022-11-01T22:05:35.911Z,100604.47
2022-11-01T22:08:04.365Z,100607.63
2022-11-01T22:10:32.570Z,100607.35
2022-11-01T22:13:06.344Z,100608.64
2022-11-01T22:15:35.274Z,100603.10
2022-11-01T22:18:03.640Z,100604.35
2022-11-01T22:20:31.953Z,100602.49
2022-11-01T22:23:00.567Z,100607.40
2022-11-01T22:25:30.458Z,100605.89
2022-11-01T22:27:58.681Z,100609.24
2022-11-01T22:30:26.952Z,100609.18
2022-11-01T22:32:55.136Z,100607.27
2022-11-01T22:35:23.451Z,100608.42
2022-11-01T22:37:51.871Z,100610.03
2022-11-01T22:40:20.294Z,100614.40
2022-11-01T22:42:55.009Z,100612.60
2022-11-01T22:45:23.195Z,100610.48
2022-11-01T22:47:51.578Z,100610.69
2022-11-01T22:50:27.013Z,100610.77
2022-11-01T22:52:55.453Z,100610.23
2022-11-01T22:55:27.527Z,100608.42
2022-11-01T22:58:03.769Z,100606.85
2022-11-01T23:00:37.543Z,100612.67
2022-11-01T23:03:22.170Z,100614.60
2022-11-01T23:05:53.328Z,100613.89
2022-11-01T23:08:30.016Z,100610.14
2022-11-01T23:10:58.430Z,100609.64
2022-11-01T23:13:47.649Z,100614.00
2022-11-01T23:16:40.251Z,100618.63
2022-11-01T23:19:11.650Z,100621.46
2022-11-01T23:21:40.318Z,100624.67
2022-11-01T23:24:08.755Z,100621.03
2022-11-01T23:26:37.114Z,100622.60
2022-11-01T23:29:05.355Z,100617.89
2022-11-01T23:31:33.804Z,100622.05
2022-11-01T23:34:02.015Z,100618.46
2022-11-01T23:36:34.387Z,100621.09
2022-11-01T23:39:09.164Z,100624.98
2022-11-01T23:41:50.237Z,100623.52
2022-11-01T23:44:31.261Z,100623.11
2022-11-01T23:47:08.020Z,100621.41
2022-11-01T23:49:36.414Z,100623.18
2022-11-01T23:52:20.694Z,100620.44
2022-11-01T23:54:48.748Z,100619.77
2022-11-01T23:57:20.738Z,100621.47
2022-11-01T23:59:51.216Z,100620.21
